sensor_id;sensor_type;location;lat;lon;timestamp;P1;durP1;ratioP1;P2;durP2;ratioP2
55148;SDS011;49539;48.160;11.530;2023-01-01T00:02:06;66.60;;;37.70;;
55148;SDS011;49539;48.160;11.530;2023-01-01T00:04:31;64.32;;;39.47;;
55148;SDS011;49539;48.160;11.530;2023-01-01T00:06:58;64.40;;;41.13;;
55148;SDS011;49539;48.160;11.530;2023-01-01T00:09:23;90.18;;;55.05;;
55148;SDS011;49539;48.160;11.530;2023-01-01T00:12:07;60.83;;;38.63;;
55148;SDS011;49539;48.160;11.530;2023-01-01T00:14:32;61.70;;;35.78;;
55148;SDS011;49539;48.160;11.530;2023-01-01T00:16:58;56.75;;;33.17;;
55148;SDS011;49539;48.160;11.530;2023-01-01T00:19:23;53.22;;;30.90;;
55148;SDS011;49539;48.160;11.530;2023-01-01T00:21:48;41.50;;;25.02;;
55148;SDS011;49539;48.160;11.530;2023-01-01T00:24:13;44.85;;;26.65;;
55148;SDS011;49539;48.160;11.530;2023-01-01T00:26:39;44.50;;;28.30;;
55148;SDS011;49539;48.160;11.530;2023-01-01T00:29:04;38.10;;;24.35;;
55148;SDS011;49539;48.160;11.530;2023-01-01T00:31:30;32.65;;;21.20;;
55148;SDS011;49539;48.160;11.530;2023-01-01T00:33:55;30.00;;;17.17;;
55148;SDS011;49539;48.160;11.530;2023-01-01T00:36:22;26.48;;;15.82;;
55148;SDS011;49539;48.160;11.530;2023-01-01T00:38:48;26.70;;;14.63;;
55148;SDS011;49539;48.160;11.530;2023-01-01T00:41:14;26.30;;;13.52;;
55148;SDS011;49539;48.160;11.530;2023-01-01T00:43:40;21.52;;;13.00;;
55148;SDS011;49539;48.160;11.530;2023-01-01T00:46:05;22.50;;;13.25;;
55148;SDS011;49539;48.160;11.530;2023-01-01T00:48:31;23.58;;;13.45;;
55148;SDS011;49539;48.160;11.530;2023-01-01T00:50:56;24.52;;;13.95;;
55148;SDS011;49539;48.160;11.530;2023-01-01T00:53:22;22.80;;;13.57;;
55148;SDS011;49539;48.160;11.530;2023-01-01T00:55:48;25.27;;;13.50;;
55148;SDS011;49539;48.160;11.530;2023-01-01T00:58:14;33.20;;;15.90;;
55148;SDS011;49539;48.160;11.530;2023-01-01T01:00:39;27.08;;;14.20;;
55148;SDS011;49539;48.160;11.530;2023-01-01T01:03:05;26.38;;;14.02;;
55148;SDS011;49539;48.160;11.530;2023-01-01T01:05:30;24.90;;;14.18;;
55148;SDS011;49539;48.160;11.530;2023-01-01T01:07:56;25.05;;;14.25;;
55148;SDS011;49539;48.160;11.530;2023-01-01T01:10:21;25.38;;;13.13;;
55148;SDS011;49539;48.160;11.530;2023-01-01T01:12:47;21.20;;;11.40;;
55148;SDS011;49539;48.160;11.530;2023-01-01T01:15:12;19.48;;;11.57;;
55148;SDS011;49539;48.160;11.530;2023-01-01T01:17:37;22.95;;;11.88;;
55148;SDS011;49539;48.160;11.530;2023-01-01T01:20:03;21.03;;;10.83;;
55148;SDS011;49539;48.160;11.530;2023-01-01T01:22:28;15.07;;;9.23;;
55148;SDS011;49539;48.160;11.530;2023-01-01T01:24:54;20.52;;;10.23;;
55148;SDS011;49539;48.160;11.530;2023-01-01T01:27:19;20.17;;;9.93;;
55148;SDS011;49539;48.160;11.530;2023-01-01T01:29:45;20.27;;;11.45;;
55148;SDS011;49539;48.160;11.530;2023-01-01T01:32:10;16.30;;;9.73;;
55148;SDS011;49539;48.160;11.530;2023-01-01T01:34:36;16.42;;;9.32;;
55148;SDS011;49539;48.160;11.530;2023-01-01T01:37:01;18.20;;;9.00;;
55148;SDS011;49539;48.160;11.530;2023-01-01T01:39:26;14.25;;;9.65;;
55148;SDS011;49539;48.160;11.530;2023-01-01T01:41:52;17.35;;;7.60;;
55148;SDS011;49539;48.160;11.530;2023-01-01T01:47:01;17.65;;;6.95;;
55148;SDS011;49539;48.160;11.530;2023-01-01T01:49:28;19.05;;;8.15;;
55148;SDS011;49539;48.160;11.530;2023-01-01T01:51:55;15.93;;;8.95;;
55148;SDS011;49539;48.160;11.530;2023-01-01T01:54:21;13.00;;;8.20;;
55148;SDS011;49539;48.160;11.530;2023-01-01T01:56:58;14.05;;;8.48;;
55148;SDS011;49539;48.160;11.530;2023-01-01T01:59:25;15.55;;;8.02;;
55148;SDS011;49539;48.160;11.530;2023-01-01T02:01:51;14.27;;;6.90;;
55148;SDS011;49539;48.160;11.530;2023-01-01T02:04:17;15.27;;;6.90;;
55148;SDS011;49539;48.160;11.530;2023-01-01T02:06:42;10.77;;;6.35;;
55148;SDS011;49539;48.160;11.530;2023-01-01T02:09:08;12.15;;;6.90;;
55148;SDS011;49539;48.160;11.530;2023-01-01T02:11:34;17.17;;;7.10;;
55148;SDS011;49539;48.160;11.530;2023-01-01T02:14:00;14.85;;;7.25;;
55148;SDS011;49539;48.160;11.530;2023-01-01T02:18:55;12.00;;;6.67;;
55148;SDS011;49539;48.160;11.530;2023-01-01T02:21:27;13.60;;;6.45;;
55148;SDS011;49539;48.160;11.530;2023-01-01T02:29:10;14.55;;;7.47;;
55148;SDS011;49539;48.160;11.530;2023-01-01T02:31:41;11.90;;;6.70;;
55148;SDS011;49539;48.160;11.530;2023-01-01T02:34:07;12.35;;;7.18;;
55148;SDS011;49539;48.160;11.530;2023-01-01T02:36:35;13.65;;;7.55;;
55148;SDS011;49539;48.160;11.530;2023-01-01T02:39:02;11.57;;;6.28;;
55148;SDS011;49539;48.160;11.530;2023-01-01T02:41:30;10.20;;;6.13;;
55148;SDS011;49539;48.160;11.530;2023-01-01T02:43:57;12.55;;;6.18;;
55148;SDS011;49539;48.160;11.530;2023-01-01T02:46:22;14.90;;;6.10;;
55148;SDS011;49539;48.160;11.530;2023-01-01T02:48:49;11.65;;;5.57;;
55148;SDS011;49539;48.160;11.530;2023-01-01T02:51:22;15.70;;;5.43;;
55148;SDS011;49539;48.160;11.530;2023-01-01T02:56:35;9.75;;;5.88;;
55148;SDS011;49539;48.160;11.530;2023-01-01T02:59:14;12.27;;;6.00;;
55148;SDS011;49539;48.160;11.530;2023-01-01T03:02:21;11.82;;;6.35;;
55148;SDS011;49539;48.160;11.530;2023-01-01T03:05:09;10.30;;;5.95;;
55148;SDS011;49539;48.160;11.530;2023-01-01T03:07:44;11.00;;;6.07;;
55148;SDS011;49539;48.160;11.530;2023-01-01T03:10:23;11.90;;;5.65;;
55148;SDS011;49539;48.160;11.530;2023-01-01T03:12:53;10.70;;;6.15;;
55148;SDS011;49539;48.160;11.530;2023-01-01T03:15:31;9.43;;;5.78;;
55148;SDS011;49539;48.160;11.530;2023-01-01T03:18:04;10.93;;;5.97;;
55148;SDS011;49539;48.160;11.530;2023-01-01T03:20:32;10.93;;;5.80;;
55148;SDS011;49539;48.160;11.530;2023-01-01T03:23:05;13.90;;;6.10;;
55148;SDS011;49539;48.160;11.530;2023-01-01T03:25:32;10.45;;;6.20;;
55148;SDS011;49539;48.160;11.530;2023-01-01T03:27:58;14.32;;;5.70;;
55148;SDS011;49539;48.160;11.530;2023-01-01T03:30:26;11.75;;;6.38;;
55148;SDS011;49539;48.160;11.530;2023-01-01T03:32:53;13.18;;;6.60;;
55148;SDS011;49539;48.160;11.530;2023-01-01T03:35:25;12.85;;;6.88;;
55148;SDS011;49539;48.160;11.530;2023-01-01T03:37:52;10.52;;;6.68;;
55148;SDS011;49539;48.160;11.530;2023-01-01T03:40:18;11.57;;;6.10;;
55148;SDS011;49539;48.160;11.530;2023-01-01T03:42:48;13.43;;;6.40;;
55148;SDS011;49539;48.160;11.530;2023-01-01T03:45:24;12.55;;;6.47;;
55148;SDS011;49539;48.160;11.530;2023-01-01T03:47:51;12.20;;;6.30;;
55148;SDS011;49539;48.160;11.530;2023-01-01T03:50:16;15.23;;;6.90;;
55148;SDS011;49539;48.160;11.530;2023-01-01T03:55:08;16.13;;;7.72;;
55148;SDS011;49539;48.160;11.530;2023-01-01T04:00:20;11.95;;;6.68;;
55148;SDS011;49539;48.160;11.530;2023-01-01T04:02:56;13.50;;;7.32;;
55148;SDS011;49539;48.160;11.530;2023-01-01T04:05:22;13.50;;;7.55;;
55148;SDS011;49539;48.160;11.530;2023-01-01T04:07:48;18.00;;;8.13;;
55148;SDS011;49539;48.160;11.530;2023-01-01T04:10:14;21.92;;;8.80;;
55148;SDS011;49539;48.160;11.530;2023-01-01T04:15:08;13.10;;;7.38;;
55148;SDS011;49539;48.160;11.530;2023-01-01T04:17:33;12.48;;;7.32;;
55148;SDS011;49539;48.160;11.530;2023-01-01T04:19:59;18.65;;;9.07;;
55148;SDS011;49539;48.160;11.530;2023-01-01T04:22:24;15.77;;;8.37;;
55148;SDS011;49539;48.160;11.530;2023-01-01T04:24:49;14.70;;;8.38;;
55148;SDS011;49539;48.160;11.530;2023-01-01T04:27:14;18.48;;;8.75;;
55148;SDS011;49539;48.160;11.530;2023-01-01T04:29:40;20.27;;;9.57;;
55148;SDS011;49539;48.160;11.530;2023-01-01T04:32:05;16.13;;;9.20;;
55148;SDS011;49539;48.160;11.530;2023-01-01T04:34:31;14.63;;;8.98;;
55148;SDS011;49539;48.160;11.530;2023-01-01T04:36:56;19.33;;;9.63;;
55148;SDS011;49539;48.160;11.530;2023-01-01T04:39:21;13.93;;;6.83;;
55148;SDS011;49539;48.160;11.530;2023-01-01T04:41:46;13.68;;;6.80;;
55148;SDS011;49539;48.160;11.530;2023-01-01T04:44:12;12.63;;;7.38;;
55148;SDS011;49539;48.160;11.530;2023-01-01T04:46:38;13.00;;;7.60;;
55148;SDS011;49539;48.160;11.530;2023-01-01T04:49:03;14.67;;;6.53;;
55148;SDS011;49539;48.160;11.530;2023-01-01T04:51:28;12.13;;;6.95;;
55148;SDS011;49539;48.160;11.530;2023-01-01T04:53:53;17.17;;;8.13;;
55148;SDS011;49539;48.160;11.530;2023-01-01T04:56:19;12.88;;;7.28;;
55148;SDS011;49539;48.160;11.530;2023-01-01T04:58:45;11.52;;;6.97;;
55148;SDS011;49539;48.160;11.530;2023-01-01T05:01:15;14.32;;;7.57;;
55148;SDS011;49539;48.160;11.530;2023-01-01T05:03:41;13.18;;;7.78;;
55148;SDS011;49539;48.160;11.530;2023-01-01T05:06:07;14.52;;;7.35;;
55148;SDS011;49539;48.160;11.530;2023-01-01T05:08:34;15.82;;;7.03;;
55148;SDS011;49539;48.160;11.530;2023-01-01T05:11:00;14.50;;;7.85;;
55148;SDS011;49539;48.160;11.530;2023-01-01T05:13:25;14.77;;;7.72;;
55148;SDS011;49539;48.160;11.530;2023-01-01T05:15:51;12.48;;;7.10;;
55148;SDS011;49539;48.160;11.530;2023-01-01T05:18:16;14.95;;;8.43;;
55148;SDS011;49539;48.160;11.530;2023-01-01T05:20:41;17.85;;;8.13;;
55148;SDS011;49539;48.160;11.530;2023-01-01T05:23:06;14.97;;;7.83;;
55148;SDS011;49539;48.160;11.530;2023-01-01T05:25:32;16.93;;;7.73;;
55148;SDS011;49539;48.160;11.530;2023-01-01T05:27:57;14.95;;;7.97;;
55148;SDS011;49539;48.160;11.530;2023-01-01T05:30:22;17.38;;;7.75;;
55148;SDS011;49539;48.160;11.530;2023-01-01T05:32:48;14.18;;;8.27;;
55148;SDS011;49539;48.160;11.530;2023-01-01T05:35:13;15.73;;;7.30;;
55148;SDS011;49539;48.160;11.530;2023-01-01T05:37:38;14.43;;;6.80;;
55148;SDS011;49539;48.160;11.530;2023-01-01T05:40:04;15.07;;;7.20;;
55148;SDS011;49539;48.160;11.530;2023-01-01T05:42:29;11.55;;;6.43;;
55148;SDS011;49539;48.160;11.530;2023-01-01T05:44:54;13.10;;;6.15;;
55148;SDS011;49539;48.160;11.530;2023-01-01T05:47:20;13.13;;;5.75;;
55148;SDS011;49539;48.160;11.530;2023-01-01T05:49:46;11.82;;;5.10;;
55148;SDS011;49539;48.160;11.530;2023-01-01T05:52:11;7.70;;;4.82;;
55148;SDS011;49539;48.160;11.530;2023-01-01T05:54:36;10.48;;;5.40;;
55148;SDS011;49539;48.160;11.530;2023-01-01T05:57:02;12.02;;;6.22;;
55148;SDS011;49539;48.160;11.530;2023-01-01T05:59:27;10.75;;;4.93;;
55148;SDS011;49539;48.160;11.530;2023-01-01T06:01:52;9.52;;;5.05;;
55148;SDS011;49539;48.160;11.530;2023-01-01T06:04:18;8.88;;;4.65;;
55148;SDS011;49539;48.160;11.530;2023-01-01T06:06:43;7.80;;;4.33;;
55148;SDS011;49539;48.160;11.530;2023-01-01T06:09:08;9.05;;;4.45;;
55148;SDS011;49539;48.160;11.530;2023-01-01T06:11:34;7.72;;;4.32;;
55148;SDS011;49539;48.160;11.530;2023-01-01T06:13:59;6.95;;;4.28;;
55148;SDS011;49539;48.160;11.530;2023-01-01T06:16:25;9.07;;;4.03;;
55148;SDS011;49539;48.160;11.530;2023-01-01T06:18:51;8.02;;;4.10;;
55148;SDS011;49539;48.160;11.530;2023-01-01T06:21:17;5.75;;;3.40;;
55148;SDS011;49539;48.160;11.530;2023-01-01T06:23:43;5.65;;;3.28;;
55148;SDS011;49539;48.160;11.530;2023-01-01T06:26:13;12.00;;;4.10;;
55148;SDS011;49539;48.160;11.530;2023-01-01T06:28:39;8.40;;;3.25;;
55148;SDS011;49539;48.160;11.530;2023-01-01T06:31:05;5.10;;;3.00;;
55148;SDS011;49539;48.160;11.530;2023-01-01T06:33:31;5.20;;;2.90;;
55148;SDS011;49539;48.160;11.530;2023-01-01T06:35:56;5.43;;;2.92;;
55148;SDS011;49539;48.160;11.530;2023-01-01T06:38:21;5.38;;;3.10;;
55148;SDS011;49539;48.160;11.530;2023-01-01T06:41:00;5.95;;;3.63;;
55148;SDS011;49539;48.160;11.530;2023-01-01T06:43:25;7.43;;;2.97;;
55148;SDS011;49539;48.160;11.530;2023-01-01T06:50:50;5.82;;;3.03;;
55148;SDS011;49539;48.160;11.530;2023-01-01T06:53:15;4.22;;;2.40;;
55148;SDS011;49539;48.160;11.530;2023-01-01T06:55:46;4.10;;;2.07;;
55148;SDS011;49539;48.160;11.530;2023-01-01T06:58:11;6.30;;;2.88;;
55148;SDS011;49539;48.160;11.530;2023-01-01T07:00:38;4.78;;;2.88;;
55148;SDS011;49539;48.160;11.530;2023-01-01T07:03:03;5.15;;;2.40;;
55148;SDS011;49539;48.160;11.530;2023-01-01T07:05:28;10.02;;;2.08;;
55148;SDS011;49539;48.160;11.530;2023-01-01T07:07:53;5.57;;;2.83;;
55148;SDS011;49539;48.160;11.530;2023-01-01T07:10:19;4.90;;;2.50;;
55148;SDS011;49539;48.160;11.530;2023-01-01T07:12:44;4.97;;;1.92;;
55148;SDS011;49539;48.160;11.530;2023-01-01T07:15:09;5.07;;;2.50;;
55148;SDS011;49539;48.160;11.530;2023-01-01T07:17:35;5.25;;;2.40;;
55148;SDS011;49539;48.160;11.530;2023-01-01T07:20:01;5.03;;;2.50;;
55148;SDS011;49539;48.160;11.530;2023-01-01T07:22:27;6.75;;;2.58;;
55148;SDS011;49539;48.160;11.530;2023-01-01T07:24:52;5.93;;;2.67;;
55148;SDS011;49539;48.160;11.530;2023-01-01T07:27:17;6.03;;;2.80;;
55148;SDS011;49539;48.160;11.530;2023-01-01T07:29:42;5.57;;;2.72;;
55148;SDS011;49539;48.160;11.530;2023-01-01T07:32:11;6.03;;;3.30;;
55148;SDS011;49539;48.160;11.530;2023-01-01T07:34:37;5.95;;;2.75;;
55148;SDS011;49539;48.160;11.530;2023-01-01T07:37:02;7.90;;;2.45;;
55148;SDS011;49539;48.160;11.530;2023-01-01T07:39:28;4.37;;;2.90;;
55148;SDS011;49539;48.160;11.530;2023-01-01T07:41:53;4.47;;;2.20;;
55148;SDS011;49539;48.160;11.530;2023-01-01T07:44:18;3.00;;;1.77;;
55148;SDS011;49539;48.160;11.530;2023-01-01T07:46:43;5.05;;;2.60;;
55148;SDS011;49539;48.160;11.530;2023-01-01T07:49:09;6.47;;;2.75;;
55148;SDS011;49539;48.160;11.530;2023-01-01T07:51:35;4.38;;;2.60;;
55148;SDS011;49539;48.160;11.530;2023-01-01T07:54:00;4.40;;;2.33;;
55148;SDS011;49539;48.160;11.530;2023-01-01T07:56:25;4.07;;;2.27;;
55148;SDS011;49539;48.160;11.530;2023-01-01T07:58:50;7.72;;;2.78;;
55148;SDS011;49539;48.160;11.530;2023-01-01T08:01:16;3.65;;;2.08;;
55148;SDS011;49539;48.160;11.530;2023-01-01T08:03:41;5.10;;;2.55;;
55148;SDS011;49539;48.160;11.530;2023-01-01T08:06:10;4.18;;;1.70;;
55148;SDS011;49539;48.160;11.530;2023-01-01T08:08:36;3.80;;;1.92;;
55148;SDS011;49539;48.160;11.530;2023-01-01T08:11:01;4.95;;;2.00;;
55148;SDS011;49539;48.160;11.530;2023-01-01T08:13:27;2.80;;;1.98;;
55148;SDS011;49539;48.160;11.530;2023-01-01T08:15:52;5.47;;;2.63;;
55148;SDS011;49539;48.160;11.530;2023-01-01T08:18:19;6.18;;;2.42;;
55148;SDS011;49539;48.160;11.530;2023-01-01T08:20:45;5.28;;;2.28;;
55148;SDS011;49539;48.160;11.530;2023-01-01T08:23:10;2.25;;;1.65;;
55148;SDS011;49539;48.160;11.530;2023-01-01T08:25:35;2.85;;;1.50;;
55148;SDS011;49539;48.160;11.530;2023-01-01T08:28:00;3.92;;;1.52;;
55148;SDS011;49539;48.160;11.530;2023-01-01T08:30:26;2.45;;;1.75;;
55148;SDS011;49539;48.160;11.530;2023-01-01T08:32:51;3.47;;;2.00;;
55148;SDS011;49539;48.160;11.530;2023-01-01T08:35:17;3.90;;;1.85;;
55148;SDS011;49539;48.160;11.530;2023-01-01T08:37:42;4.97;;;1.65;;
55148;SDS011;49539;48.160;11.530;2023-01-01T08:40:08;4.65;;;1.98;;
55148;SDS011;49539;48.160;11.530;2023-01-01T08:42:34;12.80;;;2.22;;
55148;SDS011;49539;48.160;11.530;2023-01-01T08:44:59;3.97;;;2.10;;
55148;SDS011;49539;48.160;11.530;2023-01-01T08:47:25;3.45;;;1.95;;
55148;SDS011;49539;48.160;11.530;2023-01-01T08:49:51;2.30;;;1.55;;
55148;SDS011;49539;48.160;11.530;2023-01-01T08:52:16;5.72;;;1.90;;
55148;SDS011;49539;48.160;11.530;2023-01-01T08:54:41;3.63;;;1.80;;
55148;SDS011;49539;48.160;11.530;2023-01-01T08:57:07;2.85;;;1.70;;
55148;SDS011;49539;48.160;11.530;2023-01-01T08:59:33;6.43;;;1.98;;
55148;SDS011;49539;48.160;11.530;2023-01-01T09:01:58;4.93;;;2.20;;
55148;SDS011;49539;48.160;11.530;2023-01-01T09:04:26;3.70;;;1.90;;
55148;SDS011;49539;48.160;11.530;2023-01-01T09:06:51;4.05;;;1.92;;
55148;SDS011;49539;48.160;11.530;2023-01-01T09:09:16;6.05;;;2.72;;
55148;SDS011;49539;48.160;11.530;2023-01-01T09:11:51;6.07;;;2.60;;
55148;SDS011;49539;48.160;11.530;2023-01-01T09:14:17;5.53;;;2.90;;
55148;SDS011;49539;48.160;11.530;2023-01-01T09:16:42;5.28;;;2.33;;
55148;SDS011;49539;48.160;11.530;2023-01-01T09:19:08;6.15;;;2.95;;
55148;SDS011;49539;48.160;11.530;2023-01-01T09:21:33;5.87;;;2.30;;
55148;SDS011;49539;48.160;11.530;2023-01-01T09:23:58;4.00;;;2.35;;
55148;SDS011;49539;48.160;11.530;2023-01-01T09:26:24;4.78;;;2.53;;
55148;SDS011;49539;48.160;11.530;2023-01-01T09:28:49;5.07;;;3.10;;
55148;SDS011;49539;48.160;11.530;2023-01-01T09:31:14;2.85;;;2.25;;
55148;SDS011;49539;48.160;11.530;2023-01-01T09:33:40;4.47;;;2.42;;
55148;SDS011;49539;48.160;11.530;2023-01-01T09:36:47;5.60;;;2.45;;
55148;SDS011;49539;48.160;11.530;2023-01-01T09:38:55;5.95;;;2.83;;
55148;SDS011;49539;48.160;11.530;2023-01-01T09:41:27;6.03;;;2.92;;
55148;SDS011;49539;48.160;11.530;2023-01-01T09:46:21;7.63;;;2.57;;
55148;SDS011;49539;48.160;11.530;2023-01-01T09:48:57;4.18;;;1.95;;
55148;SDS011;49539;48.160;11.530;2023-01-01T09:51:23;3.17;;;2.17;;
55148;SDS011;49539;48.160;11.530;2023-01-01T09:54:09;7.65;;;2.03;;
55148;SDS011;49539;48.160;11.530;2023-01-01T09:56:36;2.95;;;1.95;;
55148;SDS011;49539;48.160;11.530;2023-01-01T09:59:03;5.82;;;2.67;;
55148;SDS011;49539;48.160;11.530;2023-01-01T10:06:29;2.03;;;1.45;;
55148;SDS011;49539;48.160;11.530;2023-01-01T10:14:10;3.03;;;1.58;;
55148;SDS011;49539;48.160;11.530;2023-01-01T10:16:41;4.85;;;1.63;;
55148;SDS011;49539;48.160;11.530;2023-01-01T10:19:19;2.25;;;1.33;;
55148;SDS011;49539;48.160;11.530;2023-01-01T10:21:46;2.45;;;1.50;;
55148;SDS011;49539;48.160;11.530;2023-01-01T10:26:44;4.10;;;1.40;;
55148;SDS011;49539;48.160;11.530;2023-01-01T10:29:15;2.42;;;1.30;;
55148;SDS011;49539;48.160;11.530;2023-01-01T10:31:45;3.88;;;1.50;;
55148;SDS011;49539;48.160;11.530;2023-01-01T10:36:36;3.67;;;1.23;;
55148;SDS011;49539;48.160;11.530;2023-01-01T10:39:01;2.08;;;1.20;;
55148;SDS011;49539;48.160;11.530;2023-01-01T10:41:27;2.53;;;1.00;;
55148;SDS011;49539;48.160;11.530;2023-01-01T10:43:52;5.43;;;1.30;;
55148;SDS011;49539;48.160;11.530;2023-01-01T10:46:18;5.82;;;1.70;;
55148;SDS011;49539;48.160;11.530;2023-01-01T10:51:42;4.03;;;2.30;;
55148;SDS011;49539;48.160;11.530;2023-01-01T10:54:51;2.25;;;1.30;;
55148;SDS011;49539;48.160;11.530;2023-01-01T10:56:58;5.40;;;1.45;;
55148;SDS011;49539;48.160;11.530;2023-01-01T10:59:42;3.10;;;1.35;;
55148;SDS011;49539;48.160;11.530;2023-01-01T11:02:21;3.03;;;1.48;;
55148;SDS011;49539;48.160;11.530;2023-01-01T11:04:47;4.68;;;1.63;;
55148;SDS011;49539;48.160;11.530;2023-01-01T11:07:46;3.28;;;1.20;;
55148;SDS011;49539;48.160;11.530;2023-01-01T11:10:04;2.22;;;1.30;;
55148;SDS011;49539;48.160;11.530;2023-01-01T11:12:34;2.83;;;1.48;;
55148;SDS011;49539;48.160;11.530;2023-01-01T11:15:00;2.47;;;1.42;;
55148;SDS011;49539;48.160;11.530;2023-01-01T11:17:26;3.42;;;1.40;;
55148;SDS011;49539;48.160;11.530;2023-01-01T11:19:53;3.47;;;1.40;;
55148;SDS011;49539;48.160;11.530;2023-01-01T11:25:09;3.58;;;1.60;;
55148;SDS011;49539;48.160;11.530;2023-01-01T11:27:40;2.72;;;1.38;;
55148;SDS011;49539;48.160;11.530;2023-01-01T11:32:50;3.35;;;1.42;;
55148;SDS011;49539;48.160;11.530;2023-01-01T11:35:18;2.08;;;1.20;;
55148;SDS011;49539;48.160;11.530;2023-01-01T11:37:45;1.92;;;1.10;;
55148;SDS011;49539;48.160;11.530;2023-01-01T11:40:19;1.38;;;0.95;;
55148;SDS011;49539;48.160;11.530;2023-01-01T11:42:45;1.80;;;1.17;;
55148;SDS011;49539;48.160;11.530;2023-01-01T11:45:22;2.97;;;1.27;;
55148;SDS011;49539;48.160;11.530;2023-01-01T11:47:52;2.95;;;1.10;;
55148;SDS011;49539;48.160;11.530;2023-01-01T11:50:24;3.58;;;1.45;;
55148;SDS011;49539;48.160;11.530;2023-01-01T11:52:51;3.58;;;1.00;;
55148;SDS011;49539;48.160;11.530;2023-01-01T11:57:45;4.53;;;1.43;;
55148;SDS011;49539;48.160;11.530;2023-01-01T12:00:12;1.98;;;1.02;;
55148;SDS011;49539;48.160;11.530;2023-01-01T12:02:39;1.98;;;1.40;;
55148;SDS011;49539;48.160;11.530;2023-01-01T12:05:18;2.03;;;1.00;;
55148;SDS011;49539;48.160;11.530;2023-01-01T12:07:44;1.65;;;1.10;;
55148;SDS011;49539;48.160;11.530;2023-01-01T12:10:16;2.38;;;1.15;;
55148;SDS011;49539;48.160;11.530;2023-01-01T12:12:50;2.55;;;1.10;;
55148;SDS011;49539;48.160;11.530;2023-01-01T12:15:30;1.08;;;0.77;;
55148;SDS011;49539;48.160;11.530;2023-01-01T12:18:12;2.22;;;1.05;;
55148;SDS011;49539;48.160;11.530;2023-01-01T12:20:43;2.90;;;1.27;;
55148;SDS011;49539;48.160;11.530;2023-01-01T12:23:09;1.35;;;0.93;;
55148;SDS011;49539;48.160;11.530;2023-01-01T12:25:38;1.90;;;0.82;;
55148;SDS011;49539;48.160;11.530;2023-01-01T12:30:51;1.60;;;0.82;;
55148;SDS011;49539;48.160;11.530;2023-01-01T12:38:41;1.90;;;0.90;;
55148;SDS011;49539;48.160;11.530;2023-01-01T12:51:30;1.90;;;0.90;;
55148;SDS011;49539;48.160;11.530;2023-01-01T12:58:56;1.55;;;0.73;;
55148;SDS011;49539;48.160;11.530;2023-01-01T13:01:24;1.85;;;0.90;;
55148;SDS011;49539;48.160;11.530;2023-01-01T13:03:58;1.55;;;0.95;;
55148;SDS011;49539;48.160;11.530;2023-01-01T13:08:54;1.67;;;1.05;;
55148;SDS011;49539;48.160;11.530;2023-01-01T13:11:21;2.40;;;1.08;;
55148;SDS011;49539;48.160;11.530;2023-01-01T13:13:47;1.23;;;0.98;;
55148;SDS011;49539;48.160;11.530;2023-01-01T13:16:13;2.38;;;1.00;;
55148;SDS011;49539;48.160;11.530;2023-01-01T13:18:55;1.23;;;0.90;;
55148;SDS011;49539;48.160;11.530;2023-01-01T13:21:21;3.23;;;1.07;;
55148;SDS011;49539;48.160;11.530;2023-01-01T13:23:47;2.47;;;1.00;;
55148;SDS011;49539;48.160;11.530;2023-01-01T13:28:42;1.17;;;0.88;;
55148;SDS011;49539;48.160;11.530;2023-01-01T13:31:07;2.00;;;1.10;;
55148;SDS011;49539;48.160;11.530;2023-01-01T13:33:33;2.65;;;0.95;;
55148;SDS011;49539;48.160;11.530;2023-01-01T13:46:27;2.33;;;0.90;;
55148;SDS011;49539;48.160;11.530;2023-01-01T13:49:06;0.70;;;0.60;;
55148;SDS011;49539;48.160;11.530;2023-01-01T13:56:54;3.17;;;1.40;;
55148;SDS011;49539;48.160;11.530;2023-01-01T13:59:23;1.92;;;1.23;;
55148;SDS011;49539;48.160;11.530;2023-01-01T14:04:42;4.75;;;1.77;;
55148;SDS011;49539;48.160;11.530;2023-01-01T14:12:19;5.13;;;1.85;;
55148;SDS011;49539;48.160;11.530;2023-01-01T14:14:45;4.38;;;1.70;;
55148;SDS011;49539;48.160;11.530;2023-01-01T14:17:11;2.55;;;1.30;;
55148;SDS011;49539;48.160;11.530;2023-01-01T14:19:38;4.55;;;1.80;;
55148;SDS011;49539;48.160;11.530;2023-01-01T14:22:05;5.57;;;1.52;;
55148;SDS011;49539;48.160;11.530;2023-01-01T14:24:31;5.22;;;1.38;;
55148;SDS011;49539;48.160;11.530;2023-01-01T14:26:57;3.65;;;1.40;;
55148;SDS011;49539;48.160;11.530;2023-01-01T14:29:28;4.30;;;1.55;;
55148;SDS011;49539;48.160;11.530;2023-01-01T14:31:53;8.07;;;2.42;;
55148;SDS011;49539;48.160;11.530;2023-01-01T14:34:28;7.43;;;2.38;;
55148;SDS011;49539;48.160;11.530;2023-01-01T14:36:56;5.43;;;2.28;;
55148;SDS011;49539;48.160;11.530;2023-01-01T14:39:22;6.50;;;2.83;;
55148;SDS011;49539;48.160;11.530;2023-01-01T14:41:49;8.00;;;3.30;;
55148;SDS011;49539;48.160;11.530;2023-01-01T14:44:15;8.63;;;3.38;;
55148;SDS011;49539;48.160;11.530;2023-01-01T14:46:46;6.50;;;3.03;;
55148;SDS011;49539;48.160;11.530;2023-01-01T14:49:23;7.72;;;3.13;;
55148;SDS011;49539;48.160;11.530;2023-01-01T14:51:52;6.65;;;2.80;;
55148;SDS011;49539;48.160;11.530;2023-01-01T14:54:19;6.18;;;3.15;;
55148;SDS011;49539;48.160;11.530;2023-01-01T14:56:49;7.10;;;2.55;;
55148;SDS011;49539;48.160;11.530;2023-01-01T14:59:25;6.68;;;2.97;;
55148;SDS011;49539;48.160;11.530;2023-01-01T15:04:35;17.48;;;2.83;;
55148;SDS011;49539;48.160;11.530;2023-01-01T15:07:00;7.55;;;3.08;;
55148;SDS011;49539;48.160;11.530;2023-01-01T15:09:26;10.50;;;3.13;;
55148;SDS011;49539;48.160;11.530;2023-01-01T15:11:53;10.98;;;2.83;;
55148;SDS011;49539;48.160;11.530;2023-01-01T15:17:03;6.47;;;2.50;;
55148;SDS011;49539;48.160;11.530;2023-01-01T15:19:28;12.65;;;3.33;;
55148;SDS011;49539;48.160;11.530;2023-01-01T15:21:57;5.60;;;2.53;;
55148;SDS011;49539;48.160;11.530;2023-01-01T15:24:29;8.30;;;2.60;;
55148;SDS011;49539;48.160;11.530;2023-01-01T15:26:59;7.55;;;2.22;;
55148;SDS011;49539;48.160;11.530;2023-01-01T15:29:35;5.10;;;2.00;;
55148;SDS011;49539;48.160;11.530;2023-01-01T15:32:08;6.75;;;2.53;;
55148;SDS011;49539;48.160;11.530;2023-01-01T15:39:56;6.82;;;2.47;;
55148;SDS011;49539;48.160;11.530;2023-01-01T15:42:26;6.22;;;2.63;;
55148;SDS011;49539;48.160;11.530;2023-01-01T15:44:53;6.85;;;2.72;;
55148;SDS011;49539;48.160;11.530;2023-01-01T15:47:19;6.00;;;2.35;;
55148;SDS011;49539;48.160;11.530;2023-01-01T15:50:05;9.07;;;2.95;;
55148;SDS011;49539;48.160;11.530;2023-01-01T15:52:30;6.45;;;2.88;;
55148;SDS011;49539;48.160;11.530;2023-01-01T15:54:56;6.43;;;3.03;;
55148;SDS011;49539;48.160;11.530;2023-01-01T15:57:23;8.25;;;3.20;;
55148;SDS011;49539;48.160;11.530;2023-01-01T15:59:48;5.82;;;2.58;;
55148;SDS011;49539;48.160;11.530;2023-01-01T16:02:16;7.57;;;2.58;;
55148;SDS011;49539;48.160;11.530;2023-01-01T16:04:47;7.60;;;2.88;;
55148;SDS011;49539;48.160;11.530;2023-01-01T16:07:14;8.90;;;3.10;;
55148;SDS011;49539;48.160;11.530;2023-01-01T16:09:40;6.18;;;3.08;;
55148;SDS011;49539;48.160;11.530;2023-01-01T16:12:07;8.77;;;3.00;;
55148;SDS011;49539;48.160;11.530;2023-01-01T16:14:33;11.32;;;3.47;;
55148;SDS011;49539;48.160;11.530;2023-01-01T16:16:58;6.57;;;3.50;;
55148;SDS011;49539;48.160;11.530;2023-01-01T16:19:25;9.50;;;3.35;;
55148;SDS011;49539;48.160;11.530;2023-01-01T16:21:51;9.13;;;3.03;;
55148;SDS011;49539;48.160;11.530;2023-01-01T16:24:17;5.63;;;3.28;;
55148;SDS011;49539;48.160;11.530;2023-01-01T16:26:43;8.65;;;3.30;;
55148;SDS011;49539;48.160;11.530;2023-01-01T16:29:09;7.93;;;3.85;;